createdAt,value
2019-01-31T00:01:28.353Z,7.13
2019-01-31T00:04:43.728Z,7.17
2019-01-31T00:07:54.781Z,7.07
2019-01-31T00:11:17.652Z,6.73
2019-01-31T00:14:51.465Z,7.63
2019-01-31T00:17:52.016Z,6.60
2019-01-31T00:20:49.360Z,5.37
2019-01-31T00:23:58.435Z,5.17
2019-01-31T00:27:26.723Z,5.40
2019-01-31T00:30:22.646Z,4.63
2019-01-31T00:33:54.970Z,5.43
2019-01-31T00:37:02.159Z,4.97
2019-01-31T00:40:01.531Z,4.80
2019-01-31T00:42:49.164Z,4.37
2019-01-31T00:45:41.313Z,5.10
2019-01-31T00:48:35.818Z,5.13
2019-01-31T00:51:46.415Z,5.07
2019-01-31T00:54:34.580Z,4.33
2019-01-31T00:57:36.331Z,6.30
2019-01-31T01:00:57.711Z,5.47
2019-01-31T01:04:15.283Z,4.83
2019-01-31T01:07:26.140Z,4.60
2019-01-31T01:10:27.808Z,5.50
2019-01-31T01:13:11.856Z,5.63
2019-01-31T01:16:02.669Z,5.77
2019-01-31T01:19:07.714Z,6.20
2019-01-31T01:22:19.590Z,5.00
2019-01-31T01:25:28.979Z,5.03
2019-01-31T01:28:33.742Z,5.47
2019-01-31T01:31:36.634Z,5.67
2019-01-31T01:34:33.800Z,5.40
2019-01-31T01:37:28.401Z,5.37
2019-01-31T01:40:52.811Z,4.00
2019-01-31T01:44:31.963Z,4.00
2019-01-31T01:47:28.076Z,3.53
2019-01-31T01:50:08.159Z,2.93
2019-01-31T01:53:09.819Z,3.20
2019-01-31T01:56:16.549Z,3.73
2019-01-31T01:59:23.220Z,2.90
2019-01-31T02:02:43.243Z,2.93
2019-01-31T02:05:36.708Z,2.80
2019-01-31T02:08:56.102Z,2.60
2019-01-31T02:12:15.604Z,2.80
2019-01-31T02:15:15.411Z,3.40
2019-01-31T02:18:00.826Z,2.77
2019-01-31T02:20:54.113Z,3.27
2019-01-31T02:23:43.140Z,2.60
2019-01-31T02:27:01.995Z,2.57
2019-01-31T02:30:32.755Z,2.60
2019-01-31T02:33:28.478Z,2.63
2019-01-31T02:36:32.810Z,3.90
2019-01-31T02:39:23.954Z,2.93
